KLAM

Los Alamos Airport

Los Alamos, New Mexico, USA
METAR KLAM 241955Z AUTO 18008G15KT 10SM CLR 00/M20 A2994 RMK AO2 T00011198
Observed Flight Rules
Feb-24 @ 19:55 UTC (20 minutes ago) Visual Flight Rules
Wind Visibility Clouds
180° at 8 knots
 Gusting to 15 knots
10 miles
  • Clear skies
Temperatures Readings
Current 0°C / 32°F
Dewpoint -20°C / -4°F
Humidity 21%
Altimeter 29.94" Hg
Pressure 1014 hPa
Elevation 2179
METAR KLAM 241955Z AUTO 18008G15KT 10SM CLR 00/M20 A2994 RMK AO2 T00011198
Observed Flight Rules
Feb-24 @ 19:55 UTC
(20 minutes ago)
VFR
Wind Visibility
180° at 8 knots
 Gusting to 15 knots
10 miles
Clouds
  • Clear skies
Temperature Dewpoint
0°C / 32°F -20°C / -4°F
Humidity Altimeter Pressure
21% 29.94" Hg 1014 hPa